sensor_id;sensor_type;location;lat;lon;timestamp;pressure;altitude;pressure_sealevel;temperature;humidity
69027;BME280;56080;47.594;19.116;2024-03-08T00:03:29;100547;;;5.27;100.00
69027;BME280;56080;47.594;19.116;2024-03-08T00:13:27;100546;;;5.37;100.00
69027;BME280;56080;47.594;19.116;2024-03-08T00:23:28;100541;;;5.28;100.00
69027;BME280;56080;47.594;19.116;2024-03-08T00:33:27;100542;;;5.29;100.00
69027;BME280;56080;47.594;19.116;2024-03-08T00:43:28;100531;;;5.33;100.00
69027;BME280;56080;47.594;19.116;2024-03-08T00:53:28;100529;;;5.21;100.00
69027;BME280;56080;47.594;19.116;2024-03-08T01:03:31;100529;;;5.37;100.00
69027;BME280;56080;47.594;19.116;2024-03-08T01:13:29;100516;;;5.43;100.00
69027;BME280;56080;47.594;19.116;2024-03-08T01:23:29;100521;;;5.39;100.00
69027;BME280;56080;47.594;19.116;2024-03-08T01:33:31;100516;;;5.35;100.00
69027;BME280;56080;47.594;19.116;2024-03-08T01:43:30;100512;;;5.43;100.00
69027;BME280;56080;47.594;19.116;2024-03-08T01:53:31;100512;;;5.41;100.00
69027;BME280;56080;47.594;19.116;2024-03-08T02:03:31;100512;;;5.42;100.00
69027;BME280;56080;47.594;19.116;2024-03-08T02:13:31;100513;;;5.50;100.00
69027;BME280;56080;47.594;19.116;2024-03-08T02:23:32;100509;;;5.51;100.00
69027;BME280;56080;47.594;19.116;2024-03-08T02:33:32;100520;;;5.54;100.00
69027;BME280;56080;47.594;19.116;2024-03-08T02:43:34;100510;;;5.61;100.00
69027;BME280;56080;47.594;19.116;2024-03-08T02:53:35;100518;;;5.38;100.00
69027;BME280;56080;47.594;19.116;2024-03-08T03:03:34;100519;;;5.40;100.00
69027;BME280;56080;47.594;19.116;2024-03-08T03:13:34;100527;;;5.22;100.00
69027;BME280;56080;47.594;19.116;2024-03-08T03:23:35;100536;;;5.08;100.00
69027;BME280;56080;47.594;19.116;2024-03-08T03:33:36;100538;;;5.31;100.00
69027;BME280;56080;47.594;19.116;2024-03-08T03:43:36;100535;;;5.32;100.00
69027;BME280;56080;47.594;19.116;2024-03-08T03:53:35;100538;;;5.14;100.00
69027;BME280;56080;47.594;19.116;2024-03-08T04:03:36;100535;;;5.21;100.00
69027;BME280;56080;47.594;19.116;2024-03-08T04:13:36;100534;;;5.15;100.00
69027;BME280;56080;47.594;19.116;2024-03-08T04:23:37;100537;;;5.17;99.15
69027;BME280;56080;47.594;19.116;2024-03-08T04:33:38;100529;;;5.23;100.00
69027;BME280;56080;47.594;19.116;2024-03-08T04:43:37;100537;;;5.11;99.76
69027;BME280;56080;47.594;19.116;2024-03-08T04:53:38;100541;;;5.27;100.00
69027;BME280;56080;47.594;19.116;2024-03-08T05:03:39;100553;;;5.23;99.33
69027;BME280;56080;47.594;19.116;2024-03-08T05:13:40;100544;;;5.04;100.00
69027;BME280;56080;47.594;19.116;2024-03-08T05:23:39;100548;;;5.12;100.00
69027;BME280;56080;47.594;19.116;2024-03-08T05:33:42;100556;;;5.05;100.00
69027;BME280;56080;47.594;19.116;2024-03-08T05:43:40;100555;;;4.92;100.00
69027;BME280;56080;47.594;19.116;2024-03-08T05:53:40;100570;;;4.98;100.00
69027;BME280;56080;47.594;19.116;2024-03-08T06:03:45;100584;;;4.96;100.00
69027;BME280;56080;47.594;19.116;2024-03-08T06:13:41;100592;;;4.98;100.00
69027;BME280;56080;47.594;19.116;2024-03-08T06:23:41;100588;;;5.13;100.00
69027;BME280;56080;47.594;19.116;2024-03-08T06:33:42;100587;;;5.11;100.00
69027;BME280;56080;47.594;19.116;2024-03-08T06:43:43;100597;;;5.30;100.00
69027;BME280;56080;47.594;19.116;2024-03-08T06:53:42;100609;;;5.25;100.00
69027;BME280;56080;47.594;19.116;2024-03-08T07:03:44;100605;;;5.31;100.00
69027;BME280;56080;47.594;19.116;2024-03-08T07:13:44;100612;;;5.37;100.00
69027;BME280;56080;47.594;19.116;2024-03-08T07:33:44;100613;;;5.42;99.20
69027;BME280;56080;47.594;19.116;2024-03-08T07:43:45;100619;;;5.47;99.30
69027;BME280;56080;47.594;19.116;2024-03-08T07:53:45;100627;;;5.65;100.00
69027;BME280;56080;47.594;19.116;2024-03-08T08:03:46;100629;;;5.60;100.00
69027;BME280;56080;47.594;19.116;2024-03-08T08:13:46;100626;;;5.41;100.00
69027;BME280;56080;47.594;19.116;2024-03-08T08:23:47;100629;;;5.55;100.00
69027;BME280;56080;47.594;19.116;2024-03-08T08:33:52;100627;;;5.47;100.00
69027;BME280;56080;47.594;19.116;2024-03-08T08:53:48;100630;;;5.51;100.00
69027;BME280;56080;47.594;19.116;2024-03-08T09:03:50;100623;;;5.39;100.00
69027;BME280;56080;47.594;19.116;2024-03-08T09:13:49;100627;;;5.58;100.00
69027;BME280;56080;47.594;19.116;2024-03-08T09:23:49;100624;;;5.70;100.00
69027;BME280;56080;47.594;19.116;2024-03-08T09:33:50;100622;;;5.89;100.00
69027;BME280;56080;47.594;19.116;2024-03-08T09:43:50;100624;;;5.91;100.00
69027;BME280;56080;47.594;19.116;2024-03-08T09:53:50;100616;;;6.25;100.00
69027;BME280;56080;47.594;19.116;2024-03-08T10:03:51;100619;;;6.43;100.00
69027;BME280;56080;47.594;19.116;2024-03-08T10:23:52;100624;;;6.75;98.91
69027;BME280;56080;47.594;19.116;2024-03-08T10:33:53;100621;;;6.99;98.33
69027;BME280;56080;47.594;19.116;2024-03-08T10:53:54;100612;;;7.42;96.81
69027;BME280;56080;47.594;19.116;2024-03-08T11:03:56;100609;;;7.38;95.62
69027;BME280;56080;47.594;19.116;2024-03-08T11:13:56;100607;;;7.20;95.32
69027;BME280;56080;47.594;19.116;2024-03-08T11:24:00;100602;;;7.31;96.87
69027;BME280;56080;47.594;19.116;2024-03-08T11:33:57;100596;;;7.38;94.90
69027;BME280;56080;47.594;19.116;2024-03-08T11:44:05;100593;;;7.45;94.63
69027;BME280;56080;47.594;19.116;2024-03-08T11:53:59;100582;;;7.36;94.27
69027;BME280;56080;47.594;19.116;2024-03-08T12:03:59;100574;;;7.30;95.17
69027;BME280;56080;47.594;19.116;2024-03-08T12:14:01;100568;;;7.63;94.87
69027;BME280;56080;47.594;19.116;2024-03-08T12:34:00;100558;;;7.24;94.67
69027;BME280;56080;47.594;19.116;2024-03-08T12:44:01;100556;;;7.84;90.46
69027;BME280;56080;47.594;19.116;2024-03-08T12:54:09;100553;;;7.69;91.74
69027;BME280;56080;47.594;19.116;2024-03-08T13:04:03;100546;;;7.68;91.97
69027;BME280;56080;47.594;19.116;2024-03-08T13:14:04;100535;;;7.54;91.54
69027;BME280;56080;47.594;19.116;2024-03-08T13:24:04;100534;;;7.57;93.40
69027;BME280;56080;47.594;19.116;2024-03-08T13:34:05;100529;;;7.59;94.18
69027;BME280;56080;47.594;19.116;2024-03-08T13:44:06;100524;;;7.33;94.56
69027;BME280;56080;47.594;19.116;2024-03-08T14:04:08;100522;;;7.45;94.95
69027;BME280;56080;47.594;19.116;2024-03-08T14:14:06;100512;;;7.68;93.99
69027;BME280;56080;47.594;19.116;2024-03-08T14:34:07;100506;;;7.35;93.86
69027;BME280;56080;47.594;19.116;2024-03-08T14:44:08;100507;;;7.36;94.07
69027;BME280;56080;47.594;19.116;2024-03-08T14:54:10;100502;;;7.52;94.32
69027;BME280;56080;47.594;19.116;2024-03-08T15:04:10;100493;;;7.28;94.70
69027;BME280;56080;47.594;19.116;2024-03-08T15:14:11;100484;;;7.35;94.92
69027;BME280;56080;47.594;19.116;2024-03-08T15:34:13;100488;;;7.49;94.64
69027;BME280;56080;47.594;19.116;2024-03-08T15:44:13;100484;;;7.18;95.58
69027;BME280;56080;47.594;19.116;2024-03-08T15:54:12;100491;;;7.32;95.33
69027;BME280;56080;47.594;19.116;2024-03-08T16:04:13;100489;;;7.26;94.82
69027;BME280;56080;47.594;19.116;2024-03-08T16:14:16;100487;;;7.13;95.05
69027;BME280;56080;47.594;19.116;2024-03-08T16:24:14;100489;;;7.19;96.05
69027;BME280;56080;47.594;19.116;2024-03-08T16:34:16;100494;;;7.18;96.13
69027;BME280;56080;47.594;19.116;2024-03-08T16:44:18;100489;;;7.11;96.68
69027;BME280;56080;47.594;19.116;2024-03-08T16:54:15;100489;;;7.17;96.33
69027;BME280;56080;47.594;19.116;2024-03-08T17:04:18;100489;;;7.00;97.11
69027;BME280;56080;47.594;19.116;2024-03-08T17:14:18;100491;;;6.91;97.88
69027;BME280;56080;47.594;19.116;2024-03-08T17:24:23;100492;;;6.77;98.95
69027;BME280;56080;47.594;19.116;2024-03-08T17:44:18;100500;;;6.83;100.00
69027;BME280;56080;47.594;19.116;2024-03-08T17:54:19;100496;;;6.72;100.00
69027;BME280;56080;47.594;19.116;2024-03-08T18:04:22;100502;;;6.79;100.00
69027;BME280;56080;47.594;19.116;2024-03-08T18:14:20;100507;;;6.76;100.00
69027;BME280;56080;47.594;19.116;2024-03-08T18:24:20;100505;;;6.79;100.00
69027;BME280;56080;47.594;19.116;2024-03-08T18:34:21;100506;;;6.85;100.00
69027;BME280;56080;47.594;19.116;2024-03-08T18:44:21;100492;;;6.83;100.00
69027;BME280;56080;47.594;19.116;2024-03-08T18:54:26;100495;;;6.77;100.00
69027;BME280;56080;47.594;19.116;2024-03-08T19:04:23;100493;;;6.68;100.00
69027;BME280;56080;47.594;19.116;2024-03-08T19:14:23;100493;;;6.71;100.00
69027;BME280;56080;47.594;19.116;2024-03-08T19:24:23;100490;;;6.56;100.00
69027;BME280;56080;47.594;19.116;2024-03-08T19:34:26;100489;;;6.58;100.00
69027;BME280;56080;47.594;19.116;2024-03-08T19:44:25;100485;;;6.41;100.00
69027;BME280;56080;47.594;19.116;2024-03-08T19:54:25;100480;;;6.37;100.00
69027;BME280;56080;47.594;19.116;2024-03-08T20:04:27;100480;;;6.35;100.00
69027;BME280;56080;47.594;19.116;2024-03-08T20:14:28;100485;;;6.32;100.00
69027;BME280;56080;47.594;19.116;2024-03-08T20:24:26;100483;;;6.39;100.00
69027;BME280;56080;47.594;19.116;2024-03-08T20:34:27;100479;;;6.33;100.00
69027;BME280;56080;47.594;19.116;2024-03-08T20:44:27;100479;;;6.23;100.00
69027;BME280;56080;47.594;19.116;2024-03-08T20:54:28;100477;;;6.23;100.00
69027;BME280;56080;47.594;19.116;2024-03-08T21:04:28;100470;;;6.28;100.00
69027;BME280;56080;47.594;19.116;2024-03-08T21:14:32;100468;;;6.22;100.00
69027;BME280;56080;47.594;19.116;2024-03-08T21:24:29;100463;;;6.20;100.00
69027;BME280;56080;47.594;19.116;2024-03-08T21:34:32;100454;;;6.20;100.00
69027;BME280;56080;47.594;19.116;2024-03-08T21:44:31;100446;;;6.17;100.00
69027;BME280;56080;47.594;19.116;2024-03-08T21:54:33;100446;;;6.24;100.00
69027;BME280;56080;47.594;19.116;2024-03-08T22:04:31;100439;;;6.32;100.00
69027;BME280;56080;47.594;19.116;2024-03-08T22:14:33;100438;;;6.27;100.00
69027;BME280;56080;47.594;19.116;2024-03-08T22:24:33;100436;;;6.26;100.00
69027;BME280;56080;47.594;19.116;2024-03-08T22:34:32;100432;;;6.34;100.00
69027;BME280;56080;47.594;19.116;2024-03-08T22:44:33;100433;;;6.31;100.00
69027;BME280;56080;47.594;19.116;2024-03-08T22:54:33;100428;;;6.24;100.00
69027;BME280;56080;47.594;19.116;2024-03-08T23:04:34;100428;;;6.23;100.00
69027;BME280;56080;47.594;19.116;2024-03-08T23:14:35;100427;;;6.26;100.00
69027;BME280;56080;47.594;19.116;2024-03-08T23:24:35;100427;;;6.24;100.00
69027;BME280;56080;47.594;19.116;2024-03-08T23:34:36;100428;;;6.20;100.00
69027;BME280;56080;47.594;19.116;2024-03-08T23:44:38;100429;;;6.21;100.00
69027;BME280;56080;47.594;19.116;2024-03-08T23:54:40;100429;;;6.18;100.00
